الصفحة الرئيسية
METAR-TAF:

METAR-TAF

مطار :

Olympic Dam, أستراليا

دائرة عرض: 30-29-06S, خط طول: 136-52-36E, ارتفاع: 105 متر

مراقبة الطقس الحالي

تاريخ ووقت الإصدار 1ساعة و 5 دقيقة قبل الساعة 19:00UTC
ريح 6 عقدة من الجنوب/الجنوب الشرقي
درجة الحرارة 10°درجة مئوية
الرطوبة 76%
ضغط 1025 hPa
الرؤية 10 كم أو أكثر

METAR: YOLD 171900Z AUTO 16006KT 9999 // NCD 10/06 Q1025

زمن: 05:35 (20:05 UTC)

توقعات

تاريخ ووقت الإصدار 1ساعة و 24 دقيقة قبل الساعة 18:41UTC
التوقعات صالحة من17 الساعة 20 UTC إلى 18 الساعة 08 UTC
ريح 7 عقدة من الجنوب/الجنوب الشرقي
الرؤية 10 كم أو أكثر
الغيوم لا تقل 1500 م ولا وجود لمزنة ركامية السحاب الأسود
من 18 الساعة 0000 UTC
ريح 8 عقدة من الشرق/الجنوب الشرقي
الرؤية 10 كم أو أكثر
الغيوم لا تقل 1500 م ولا وجود لمزنة ركامية السحاب الأسود
من 18 الساعة 0300 UTC
ريح 6 عقدة من الغرب
الرؤية 10 كم أو أكثر
الغيوم لا تقل 1500 م ولا وجود لمزنة ركامية السحاب الأسود

TAF: YOLD 171841Z 1720/1808 16007KT CAVOK FM180000 12008KT CAVOK FM180300 27006KT CAVOK

أرصاد الطقس والتوقعات من أكثر من 4000 مطار (تقارير الطقس للمطار METAR والتنبؤ بالطقس بالمطارTAF).

المحطات المتاحة هي النقط الصفراء والحمراء على الخريطة.

حرك المؤشر فوق النقطة لمعرفة اسم المحطة.

ثم انقر لمعرفة أرصاد وتوقعات الطقس.

لتغيير الخارطة: اضغط على الأزرار الخضراء مع رمز الصليب الأسود للتكبير. على الزر الأخضر مع شرطة للتصغير، أو على الأسهم الخضراء للخرائط المجاورة.


METAR-TAF: